createdAt,value
2022-11-29T00:03:07.772Z,53.80
2022-11-29T00:08:10.840Z,53.00
2022-11-29T00:13:13.756Z,52.45
2022-11-29T00:18:17.866Z,53.63
2022-11-29T00:23:20.636Z,51.63
2022-11-29T00:28:23.420Z,53.10
2022-11-29T00:33:27.805Z,54.03
2022-11-29T00:38:30.573Z,58.60
2022-11-29T00:43:33.468Z,55.65
2022-11-29T00:48:38.100Z,56.25
2022-11-29T00:53:41.367Z,55.53
2022-11-29T00:58:44.332Z,57.33
2022-11-29T01:03:48.435Z,52.35
2022-11-29T01:08:51.211Z,53.72
2022-11-29T01:13:57.226Z,58.92
2022-11-29T01:19:01.590Z,46.05
2022-11-29T01:24:04.639Z,55.25
2022-11-29T01:29:07.790Z,49.58
2022-11-29T01:34:12.574Z,52.53
2022-11-29T01:39:15.409Z,52.08
2022-11-29T01:44:55.520Z,52.97
2022-11-29T01:50:00.391Z,54.60
2022-11-29T01:55:06.756Z,47.08
2022-11-29T02:00:13.169Z,43.53
2022-11-29T02:05:19.616Z,44.85
2022-11-29T02:10:30.847Z,51.33
2022-11-29T02:15:42.530Z,47.75
2022-11-29T02:21:04.455Z,52.97
2022-11-29T02:26:26.818Z,40.00
2022-11-29T02:31:50.348Z,55.72
2022-11-29T02:37:11.678Z,50.80
2022-11-29T02:42:55.599Z,49.00
2022-11-29T02:48:15.482Z,48.70
2022-11-29T02:53:27.709Z,45.42
2022-11-29T02:58:37.841Z,52.92
2022-11-29T03:03:47.540Z,46.22
2022-11-29T03:09:00.644Z,50.55
2022-11-29T03:14:15.535Z,47.55
2022-11-29T03:19:36.036Z,58.85
2022-11-29T03:24:46.244Z,58.20
2022-11-29T03:29:55.175Z,62.67
2022-11-29T03:35:07.971Z,62.28
2022-11-29T03:45:24.688Z,84.97
2022-11-29T03:50:34.688Z,87.88
2022-11-29T03:55:53.547Z,73.13
2022-11-29T04:01:31.796Z,78.43
2022-11-29T04:06:48.524Z,79.03
2022-11-29T04:12:22.059Z,93.97
2022-11-29T04:17:43.524Z,87.18
2022-11-29T04:23:26.047Z,96.43
2022-11-29T04:29:09.648Z,89.05
2022-11-29T04:34:47.409Z,114.22
2022-11-29T04:40:02.906Z,106.93
2022-11-29T04:45:54.689Z,105.18
2022-11-29T04:51:09.996Z,108.40
2022-11-29T04:56:21.451Z,116.22
2022-11-29T05:01:34.009Z,103.85
2022-11-29T05:06:45.955Z,115.85
2022-11-29T05:11:58.838Z,137.10
2022-11-29T05:17:22.339Z,99.20
2022-11-29T05:22:32.645Z,125.93
2022-11-29T05:27:47.007Z,214.68
2022-11-29T05:32:58.550Z,157.27
2022-11-29T05:38:09.465Z,130.80
2022-11-29T05:43:26.167Z,299.35
2022-11-29T05:48:44.948Z,138.80
2022-11-29T05:53:58.471Z,141.00
2022-11-29T05:59:05.132Z,156.50
2022-11-29T06:04:17.133Z,166.27
2022-11-29T06:09:27.235Z,111.07
2022-11-29T06:14:59.092Z,113.93
2022-11-29T06:20:26.332Z,134.25
2022-11-29T06:25:47.068Z,84.72
2022-11-29T06:31:00.613Z,80.18
2022-11-29T06:36:16.884Z,135.65
2022-11-29T06:41:21.839Z,84.95
2022-11-29T06:46:35.350Z,92.40
2022-11-29T06:51:49.308Z,85.60
2022-11-29T06:57:01.280Z,90.80
2022-11-29T07:02:22.357Z,82.30
2022-11-29T07:07:27.274Z,87.00
2022-11-29T07:12:30.697Z,64.13
2022-11-29T07:17:44.396Z,65.35
2022-11-29T07:22:59.576Z,64.22
2022-11-29T07:28:12.361Z,67.63
2022-11-29T07:38:31.590Z,54.05
2022-11-29T07:43:46.597Z,38.65
2022-11-29T07:48:49.344Z,31.10
2022-11-29T07:53:53.904Z,33.88
2022-11-29T07:58:56.696Z,38.50
2022-11-29T08:03:59.621Z,44.72
2022-11-29T08:09:05.395Z,38.78
2022-11-29T08:14:08.126Z,41.50
2022-11-29T08:19:10.872Z,50.45
2022-11-29T08:24:15.035Z,57.05
2022-11-29T08:29:18.229Z,60.28
2022-11-29T08:34:21.438Z,72.32
2022-11-29T08:39:25.531Z,72.38
2022-11-29T08:44:28.427Z,62.85
2022-11-29T08:49:31.211Z,68.72
2022-11-29T08:54:35.727Z,69.00
2022-11-29T08:59:38.474Z,69.00
2022-11-29T09:04:41.246Z,70.22
2022-11-29T09:09:45.381Z,64.50
2022-11-29T09:14:48.164Z,63.20
2022-11-29T09:19:50.982Z,74.22
2022-11-29T09:24:55.071Z,83.13
2022-11-29T09:29:57.864Z,74.15
2022-11-29T09:35:00.618Z,83.45
2022-11-29T09:40:05.773Z,84.53
2022-11-29T09:45:11.822Z,87.63
2022-11-29T09:50:25.477Z,86.07
2022-11-29T09:55:48.382Z,77.60
2022-11-29T10:05:59.629Z,77.50
2022-11-29T10:11:14.763Z,72.72
2022-11-29T10:16:25.954Z,88.55
2022-11-29T10:21:35.835Z,75.72
2022-11-29T10:26:40.103Z,74.95
2022-11-29T10:31:49.181Z,69.95
2022-11-29T10:36:54.715Z,74.82
2022-11-29T10:42:03.762Z,73.45
2022-11-29T10:47:10.903Z,75.40
2022-11-29T10:52:20.519Z,72.05
2022-11-29T10:57:25.229Z,80.60
2022-11-29T11:02:28.632Z,70.78
2022-11-29T11:07:35.099Z,67.35
2022-11-29T11:12:39.305Z,70.75
2022-11-29T11:17:56.531Z,66.18
2022-11-29T11:23:02.112Z,72.65
2022-11-29T11:28:20.403Z,70.30
2022-11-29T11:33:27.012Z,68.45
2022-11-29T11:38:30.496Z,60.83
2022-11-29T11:43:35.711Z,65.35
2022-11-29T11:48:41.891Z,59.50
2022-11-29T11:53:52.126Z,59.83
2022-11-29T11:58:58.826Z,50.35
2022-11-29T12:04:06.771Z,64.05
2022-11-29T12:09:19.311Z,60.03
2022-11-29T12:14:34.111Z,61.70
2022-11-29T12:19:44.205Z,67.60
2022-11-29T12:24:56.080Z,59.65
2022-11-29T12:30:00.254Z,52.87
2022-11-29T12:35:35.025Z,55.22
2022-11-29T12:40:47.400Z,57.30
2022-11-29T12:45:58.526Z,55.38
2022-11-29T12:51:09.433Z,64.55
2022-11-29T12:56:16.942Z,54.13
2022-11-29T13:01:30.979Z,79.13
2022-11-29T13:06:40.427Z,78.20
2022-11-29T13:11:53.897Z,97.15
2022-11-29T13:17:02.151Z,83.15
2022-11-29T13:22:11.815Z,83.93
2022-11-29T13:27:18.776Z,73.72
2022-11-29T13:32:35.131Z,74.72
2022-11-29T13:37:48.366Z,68.07
2022-11-29T13:43:02.200Z,65.20
2022-11-29T13:48:27.850Z,59.13
2022-11-29T13:53:48.614Z,60.40
2022-11-29T13:58:54.713Z,63.47
2022-11-29T14:04:07.919Z,64.55
2022-11-29T14:09:26.881Z,78.03
2022-11-29T14:14:35.264Z,75.32
2022-11-29T14:19:39.435Z,92.70
2022-11-29T14:24:43.186Z,93.78
2022-11-29T14:29:54.555Z,76.57
2022-11-29T14:35:04.709Z,83.28
2022-11-29T14:40:21.858Z,84.53
2022-11-29T14:45:27.872Z,77.00
2022-11-29T14:50:37.504Z,83.00
2022-11-29T14:55:40.395Z,84.13
2022-11-29T15:01:09.859Z,68.43
2022-11-29T15:06:24.037Z,69.63
2022-11-29T15:11:43.078Z,68.47
2022-11-29T15:16:59.412Z,70.88
2022-11-29T15:22:11.697Z,71.88
2022-11-29T15:27:14.527Z,66.95
2022-11-29T15:32:23.391Z,73.50
2022-11-29T15:37:44.484Z,69.13
2022-11-29T15:42:50.748Z,68.63
2022-11-29T15:47:54.044Z,66.35
2022-11-29T15:53:02.058Z,61.22
2022-11-29T15:58:08.856Z,61.17
2022-11-29T16:03:20.930Z,58.10
2022-11-29T16:08:35.408Z,62.73
2022-11-29T16:13:40.381Z,78.47
2022-11-29T16:18:44.680Z,63.60
2022-11-29T16:23:49.196Z,49.55
2022-11-29T16:28:54.391Z,61.63
2022-11-29T16:33:57.746Z,63.25
2022-11-29T16:39:06.551Z,65.45
2022-11-29T16:44:45.446Z,56.20
2022-11-29T16:50:10.644Z,53.25
2022-11-29T16:55:13.772Z,53.33
2022-11-29T17:00:26.047Z,49.40
2022-11-29T17:05:30.359Z,58.33
2022-11-29T17:10:33.271Z,51.97
2022-11-29T17:15:36.096Z,47.85
2022-11-29T17:20:40.297Z,57.85
2022-11-29T17:25:43.132Z,57.08
2022-11-29T17:30:45.987Z,60.97
2022-11-29T17:35:50.138Z,62.33
2022-11-29T17:40:52.961Z,66.63
2022-11-29T17:45:55.769Z,68.63
2022-11-29T17:51:01.864Z,69.43
2022-11-29T17:56:06.204Z,64.40
2022-11-29T18:01:11.172Z,59.65
2022-11-29T18:06:17.428Z,66.60
2022-11-29T18:11:21.965Z,54.42
2022-11-29T18:16:26.623Z,58.40
2022-11-29T18:21:31.519Z,58.55
2022-11-29T18:26:36.200Z,57.53
2022-11-29T18:31:41.023Z,67.55
2022-11-29T18:36:47.358Z,58.95
2022-11-29T18:41:51.543Z,59.30
2022-11-29T18:46:54.374Z,60.25
2022-11-29T18:51:58.475Z,54.33
2022-11-29T18:57:01.332Z,56.78
2022-11-29T19:02:04.118Z,46.72
2022-11-29T19:07:08.271Z,41.92
2022-11-29T19:12:11.044Z,49.13
2022-11-29T19:17:13.805Z,42.55
2022-11-29T19:22:18.010Z,48.40
2022-11-29T19:27:21.235Z,50.22
2022-11-29T19:32:24.008Z,53.03
2022-11-29T19:37:28.206Z,47.78
2022-11-29T19:42:31.089Z,52.15
2022-11-29T19:47:33.894Z,44.50
2022-11-29T19:52:38.184Z,39.33
2022-11-29T19:57:40.993Z,42.17
2022-11-29T20:02:43.862Z,40.33
2022-11-29T20:07:48.125Z,35.40
2022-11-29T20:12:51.155Z,43.50
2022-11-29T20:17:54.349Z,50.83
2022-11-29T20:22:58.699Z,52.75
2022-11-29T20:28:01.480Z,54.92
2022-11-29T20:33:05.100Z,51.63
2022-11-29T20:38:19.964Z,58.53
2022-11-29T20:43:38.888Z,62.40
2022-11-29T20:48:42.136Z,61.88
2022-11-29T20:53:48.428Z,66.60
2022-11-29T20:58:51.388Z,54.95
2022-11-29T21:03:54.256Z,54.63
2022-11-29T21:08:58.474Z,55.85
2022-11-29T21:14:03.969Z,53.55
2022-11-29T21:19:07.279Z,48.30
2022-11-29T21:24:27.833Z,50.38
2022-11-29T21:29:31.225Z,56.83
2022-11-29T21:34:34.807Z,59.70
2022-11-29T21:39:39.236Z,64.38
2022-11-29T21:44:42.008Z,59.67
2022-11-29T21:49:46.282Z,58.67
2022-11-29T21:54:50.684Z,57.83
2022-11-29T21:59:53.747Z,52.47
2022-11-29T22:04:56.546Z,54.72
2022-11-29T22:10:08.557Z,61.20
2022-11-29T22:15:19.055Z,49.80
2022-11-29T22:20:24.390Z,51.90
2022-11-29T22:25:28.535Z,58.83
2022-11-29T22:30:31.276Z,62.28
2022-11-29T22:35:34.024Z,67.47
2022-11-29T22:40:38.304Z,60.63
2022-11-29T22:45:41.075Z,67.32
2022-11-29T22:50:43.841Z,62.28
2022-11-29T22:55:47.924Z,60.58
2022-11-29T23:00:50.728Z,59.47
2022-11-29T23:05:53.554Z,58.70
2022-11-29T23:10:58.236Z,55.42
2022-11-29T23:16:01.595Z,59.97
2022-11-29T23:21:07.319Z,55.15
2022-11-29T23:26:18.427Z,56.60
2022-11-29T23:31:22.465Z,60.15
2022-11-29T23:36:25.242Z,63.30
2022-11-29T23:41:29.325Z,62.05
2022-11-29T23:46:32.160Z,66.70
2022-11-29T23:51:34.947Z,69.80
2022-11-29T23:56:39.083Z,64.53
